sensor_id;sensor_type;location;lat;lon;timestamp;temperature;humidity
15481;DHT22;7842;50.904;6.670;2022-11-25T00:01:08;7.30;99.90
15481;DHT22;7842;50.904;6.670;2022-11-25T00:03:35;7.40;99.90
15481;DHT22;7842;50.904;6.670;2022-11-25T00:06:11;7.40;99.90
15481;DHT22;7842;50.904;6.670;2022-11-25T00:08:38;7.40;99.90
15481;DHT22;7842;50.904;6.670;2022-11-25T00:11:05;7.50;99.90
15481;DHT22;7842;50.904;6.670;2022-11-25T00:13:31;7.50;99.90
15481;DHT22;7842;50.904;6.670;2022-11-25T00:16:08;7.50;99.90
15481;DHT22;7842;50.904;6.670;2022-11-25T00:18:34;7.60;99.90
15481;DHT22;7842;50.904;6.670;2022-11-25T00:21:09;7.70;99.90
15481;DHT22;7842;50.904;6.670;2022-11-25T00:23:36;7.70;99.90
15481;DHT22;7842;50.904;6.670;2022-11-25T00:26:13;7.70;99.90
15481;DHT22;7842;50.904;6.670;2022-11-25T00:28:40;7.80;99.90
15481;DHT22;7842;50.904;6.670;2022-11-25T00:31:13;7.90;99.90
15481;DHT22;7842;50.904;6.670;2022-11-25T00:33:39;7.90;99.90
15481;DHT22;7842;50.904;6.670;2022-11-25T00:36:06;8.00;99.90
15481;DHT22;7842;50.904;6.670;2022-11-25T00:38:35;8.00;99.90
15481;DHT22;7842;50.904;6.670;2022-11-25T00:41:01;8.00;99.90
15481;DHT22;7842;50.904;6.670;2022-11-25T00:43:45;8.20;99.90
15481;DHT22;7842;50.904;6.670;2022-11-25T00:46:29;8.10;99.90
15481;DHT22;7842;50.904;6.670;2022-11-25T00:48:54;8.10;99.90
15481;DHT22;7842;50.904;6.670;2022-11-25T00:51:20;8.20;99.90
15481;DHT22;7842;50.904;6.670;2022-11-25T00:53:46;8.20;99.90
15481;DHT22;7842;50.904;6.670;2022-11-25T00:56:11;8.20;99.90
15481;DHT22;7842;50.904;6.670;2022-11-25T00:58:41;8.30;99.90
15481;DHT22;7842;50.904;6.670;2022-11-25T01:01:07;8.30;99.90
15481;DHT22;7842;50.904;6.670;2022-11-25T01:03:33;8.30;99.90
15481;DHT22;7842;50.904;6.670;2022-11-25T01:06:06;8.30;99.90
15481;DHT22;7842;50.904;6.670;2022-11-25T01:08:33;8.30;99.90
15481;DHT22;7842;50.904;6.670;2022-11-25T01:11:04;8.30;99.90
15481;DHT22;7842;50.904;6.670;2022-11-25T01:13:31;8.30;99.90
15481;DHT22;7842;50.904;6.670;2022-11-25T01:16:00;8.30;99.90
15481;DHT22;7842;50.904;6.670;2022-11-25T01:18:27;8.40;99.90
15481;DHT22;7842;50.904;6.670;2022-11-25T01:20:52;8.40;99.90
15481;DHT22;7842;50.904;6.670;2022-11-25T01:23:18;8.40;99.90
15481;DHT22;7842;50.904;6.670;2022-11-25T01:25:44;8.50;99.90
15481;DHT22;7842;50.904;6.670;2022-11-25T01:28:09;8.50;99.90
15481;DHT22;7842;50.904;6.670;2022-11-25T01:30:35;8.50;99.90
15481;DHT22;7842;50.904;6.670;2022-11-25T01:33:00;8.50;99.90
15481;DHT22;7842;50.904;6.670;2022-11-25T01:35:26;8.50;99.90
15481;DHT22;7842;50.904;6.670;2022-11-25T01:37:51;8.60;99.90
15481;DHT22;7842;50.904;6.670;2022-11-25T01:40:17;8.70;99.90
15481;DHT22;7842;50.904;6.670;2022-11-25T01:42:45;8.60;99.90
15481;DHT22;7842;50.904;6.670;2022-11-25T01:47:55;8.70;99.90
15481;DHT22;7842;50.904;6.670;2022-11-25T01:50:23;8.70;99.90
15481;DHT22;7842;50.904;6.670;2022-11-25T01:52:52;8.70;99.90
15481;DHT22;7842;50.904;6.670;2022-11-25T01:55:23;8.70;99.90
15481;DHT22;7842;50.904;6.670;2022-11-25T01:57:57;8.70;99.90
15481;DHT22;7842;50.904;6.670;2022-11-25T02:00:24;8.70;99.90
15481;DHT22;7842;50.904;6.670;2022-11-25T02:02:52;8.70;99.90
15481;DHT22;7842;50.904;6.670;2022-11-25T02:05:29;8.80;99.90
15481;DHT22;7842;50.904;6.670;2022-11-25T02:07:57;8.80;99.90
15481;DHT22;7842;50.904;6.670;2022-11-25T02:10:26;8.80;99.90
15481;DHT22;7842;50.904;6.670;2022-11-25T02:12:53;8.80;99.90
15481;DHT22;7842;50.904;6.670;2022-11-25T02:15:20;8.90;99.90
15481;DHT22;7842;50.904;6.670;2022-11-25T02:17:46;8.90;99.90
15481;DHT22;7842;50.904;6.670;2022-11-25T02:20:14;8.90;99.90
15481;DHT22;7842;50.904;6.670;2022-11-25T02:25:25;8.90;99.90
15481;DHT22;7842;50.904;6.670;2022-11-25T02:28:01;8.90;99.90
15481;DHT22;7842;50.904;6.670;2022-11-25T02:30:28;8.90;99.90
15481;DHT22;7842;50.904;6.670;2022-11-25T02:32:54;8.90;99.90
15481;DHT22;7842;50.904;6.670;2022-11-25T02:38:12;8.90;99.90
15481;DHT22;7842;50.904;6.670;2022-11-25T02:40:54;8.90;99.90
15481;DHT22;7842;50.904;6.670;2022-11-25T02:43:20;8.90;99.90
15481;DHT22;7842;50.904;6.670;2022-11-25T02:45:59;8.90;99.90
15481;DHT22;7842;50.904;6.670;2022-11-25T02:48:27;8.90;99.90
15481;DHT22;7842;50.904;6.670;2022-11-25T02:50:53;8.90;99.90
15481;DHT22;7842;50.904;6.670;2022-11-25T02:53:19;8.90;99.90
15481;DHT22;7842;50.904;6.670;2022-11-25T02:55:45;9.00;99.90
15481;DHT22;7842;50.904;6.670;2022-11-25T02:58:12;8.90;99.90
15481;DHT22;7842;50.904;6.670;2022-11-25T03:00:38;9.00;99.90
15481;DHT22;7842;50.904;6.670;2022-11-25T03:03:04;9.00;99.90
15481;DHT22;7842;50.904;6.670;2022-11-25T03:05:30;9.00;99.90
15481;DHT22;7842;50.904;6.670;2022-11-25T03:07:55;9.00;99.90
15481;DHT22;7842;50.904;6.670;2022-11-25T03:10:21;9.00;99.90
15481;DHT22;7842;50.904;6.670;2022-11-25T03:12:47;9.00;99.90
15481;DHT22;7842;50.904;6.670;2022-11-25T03:15:13;9.00;99.90
15481;DHT22;7842;50.904;6.670;2022-11-25T03:17:39;9.00;99.90
15481;DHT22;7842;50.904;6.670;2022-11-25T03:20:07;9.00;99.90
15481;DHT22;7842;50.904;6.670;2022-11-25T03:22:33;9.00;99.90
15481;DHT22;7842;50.904;6.670;2022-11-25T03:24:58;8.90;99.90
15481;DHT22;7842;50.904;6.670;2022-11-25T03:27:24;8.90;99.90
15481;DHT22;7842;50.904;6.670;2022-11-25T03:29:51;8.90;99.90
15481;DHT22;7842;50.904;6.670;2022-11-25T03:32:17;8.90;99.90
15481;DHT22;7842;50.904;6.670;2022-11-25T03:34:43;8.90;99.90
15481;DHT22;7842;50.904;6.670;2022-11-25T03:37:08;8.90;99.90
15481;DHT22;7842;50.904;6.670;2022-11-25T03:39:34;8.90;99.90
15481;DHT22;7842;50.904;6.670;2022-11-25T03:41:59;8.90;99.90
15481;DHT22;7842;50.904;6.670;2022-11-25T03:44:25;8.80;99.90
15481;DHT22;7842;50.904;6.670;2022-11-25T03:46:51;8.90;99.90
15481;DHT22;7842;50.904;6.670;2022-11-25T03:49:16;8.80;99.90
15481;DHT22;7842;50.904;6.670;2022-11-25T03:51:42;8.80;99.90
15481;DHT22;7842;50.904;6.670;2022-11-25T03:54:08;8.80;99.90
15481;DHT22;7842;50.904;6.670;2022-11-25T03:56:33;8.80;99.90
15481;DHT22;7842;50.904;6.670;2022-11-25T03:58:59;8.80;99.90
15481;DHT22;7842;50.904;6.670;2022-11-25T04:01:25;8.80;99.90
15481;DHT22;7842;50.904;6.670;2022-11-25T04:03:50;8.80;99.90
15481;DHT22;7842;50.904;6.670;2022-11-25T04:06:16;8.80;99.90
15481;DHT22;7842;50.904;6.670;2022-11-25T04:08:44;8.90;99.90
15481;DHT22;7842;50.904;6.670;2022-11-25T04:11:10;8.80;99.90
15481;DHT22;7842;50.904;6.670;2022-11-25T04:13:36;8.90;99.90
15481;DHT22;7842;50.904;6.670;2022-11-25T04:16:01;8.90;99.90
15481;DHT22;7842;50.904;6.670;2022-11-25T04:18:28;8.90;99.90
15481;DHT22;7842;50.904;6.670;2022-11-25T04:20:53;8.80;99.90
15481;DHT22;7842;50.904;6.670;2022-11-25T04:23:19;8.80;99.90
15481;DHT22;7842;50.904;6.670;2022-11-25T04:25:44;8.80;99.90
15481;DHT22;7842;50.904;6.670;2022-11-25T04:28:10;8.80;99.90
15481;DHT22;7842;50.904;6.670;2022-11-25T04:30:36;8.80;99.90
15481;DHT22;7842;50.904;6.670;2022-11-25T04:33:02;8.80;99.90
15481;DHT22;7842;50.904;6.670;2022-11-25T04:35:27;8.80;99.90
15481;DHT22;7842;50.904;6.670;2022-11-25T04:37:53;8.70;99.90
15481;DHT22;7842;50.904;6.670;2022-11-25T04:40:19;8.70;99.90
15481;DHT22;7842;50.904;6.670;2022-11-25T04:42:44;8.60;99.90
15481;DHT22;7842;50.904;6.670;2022-11-25T04:45:15;8.60;99.90
15481;DHT22;7842;50.904;6.670;2022-11-25T04:47:42;8.50;99.90
15481;DHT22;7842;50.904;6.670;2022-11-25T04:50:13;8.50;99.90
15481;DHT22;7842;50.904;6.670;2022-11-25T04:52:40;8.50;99.90
15481;DHT22;7842;50.904;6.670;2022-11-25T04:55:06;8.40;99.90
15481;DHT22;7842;50.904;6.670;2022-11-25T04:57:31;8.50;99.90
15481;DHT22;7842;50.904;6.670;2022-11-25T04:59:57;8.50;99.90
15481;DHT22;7842;50.904;6.670;2022-11-25T05:02:24;8.50;99.90
15481;DHT22;7842;50.904;6.670;2022-11-25T05:04:52;8.60;99.90
15481;DHT22;7842;50.904;6.670;2022-11-25T05:07:20;8.50;99.90
15481;DHT22;7842;50.904;6.670;2022-11-25T05:09:47;8.50;99.90
15481;DHT22;7842;50.904;6.670;2022-11-25T05:12:19;8.50;99.90
15481;DHT22;7842;50.904;6.670;2022-11-25T05:14:44;8.50;99.90
15481;DHT22;7842;50.904;6.670;2022-11-25T05:17:13;8.50;99.90
15481;DHT22;7842;50.904;6.670;2022-11-25T05:19:39;8.50;99.90
15481;DHT22;7842;50.904;6.670;2022-11-25T05:22:09;8.60;99.90
15481;DHT22;7842;50.904;6.670;2022-11-25T05:24:35;8.50;99.90
15481;DHT22;7842;50.904;6.670;2022-11-25T05:27:00;8.50;99.90
15481;DHT22;7842;50.904;6.670;2022-11-25T05:29:26;8.50;99.90
15481;DHT22;7842;50.904;6.670;2022-11-25T05:31:51;8.50;99.90
15481;DHT22;7842;50.904;6.670;2022-11-25T05:34:17;8.50;99.90
15481;DHT22;7842;50.904;6.670;2022-11-25T05:36:43;8.50;99.90
15481;DHT22;7842;50.904;6.670;2022-11-25T05:39:08;8.50;99.90
15481;DHT22;7842;50.904;6.670;2022-11-25T05:41:34;8.60;99.90
15481;DHT22;7842;50.904;6.670;2022-11-25T05:43:59;8.60;99.90
15481;DHT22;7842;50.904;6.670;2022-11-25T05:46:25;8.60;99.90
15481;DHT22;7842;50.904;6.670;2022-11-25T05:48:54;8.60;99.90
15481;DHT22;7842;50.904;6.670;2022-11-25T05:51:20;8.60;99.90
15481;DHT22;7842;50.904;6.670;2022-11-25T05:53:46;8.70;99.90
15481;DHT22;7842;50.904;6.670;2022-11-25T05:56:12;8.70;99.90
15481;DHT22;7842;50.904;6.670;2022-11-25T05:58:37;8.70;99.90
15481;DHT22;7842;50.904;6.670;2022-11-25T06:01:12;8.70;99.90
15481;DHT22;7842;50.904;6.670;2022-11-25T06:03:38;8.60;99.90
15481;DHT22;7842;50.904;6.670;2022-11-25T06:06:04;8.60;99.90
15481;DHT22;7842;50.904;6.670;2022-11-25T06:08:30;8.60;99.90
15481;DHT22;7842;50.904;6.670;2022-11-25T06:10:56;8.60;99.90
15481;DHT22;7842;50.904;6.670;2022-11-25T06:13:22;8.70;99.90
15481;DHT22;7842;50.904;6.670;2022-11-25T06:15:47;8.70;99.90
15481;DHT22;7842;50.904;6.670;2022-11-25T06:18:15;8.70;99.90
15481;DHT22;7842;50.904;6.670;2022-11-25T06:20:41;8.60;99.90
15481;DHT22;7842;50.904;6.670;2022-11-25T06:23:08;8.60;99.90
15481;DHT22;7842;50.904;6.670;2022-11-25T06:25:34;8.60;99.90
15481;DHT22;7842;50.904;6.670;2022-11-25T06:28:01;8.60;99.90
15481;DHT22;7842;50.904;6.670;2022-11-25T06:30:28;8.70;99.90
15481;DHT22;7842;50.904;6.670;2022-11-25T06:32:54;8.70;99.90
15481;DHT22;7842;50.904;6.670;2022-11-25T06:35:20;8.70;99.90
15481;DHT22;7842;50.904;6.670;2022-11-25T06:37:46;8.70;99.90
15481;DHT22;7842;50.904;6.670;2022-11-25T06:40:12;8.60;99.90
15481;DHT22;7842;50.904;6.670;2022-11-25T06:42:38;8.80;99.90
15481;DHT22;7842;50.904;6.670;2022-11-25T06:45:04;9.00;99.90
15481;DHT22;7842;50.904;6.670;2022-11-25T06:47:30;8.80;99.90
15481;DHT22;7842;50.904;6.670;2022-11-25T06:49:56;8.80;99.90
15481;DHT22;7842;50.904;6.670;2022-11-25T06:52:22;8.90;99.90
15481;DHT22;7842;50.904;6.670;2022-11-25T06:54:49;8.90;99.90
15481;DHT22;7842;50.904;6.670;2022-11-25T06:57:17;8.70;99.90
15481;DHT22;7842;50.904;6.670;2022-11-25T06:59:43;8.60;99.90
15481;DHT22;7842;50.904;6.670;2022-11-25T07:02:10;8.60;99.90
15481;DHT22;7842;50.904;6.670;2022-11-25T07:04:36;8.50;99.90
15481;DHT22;7842;50.904;6.670;2022-11-25T07:07:01;8.50;99.90
15481;DHT22;7842;50.904;6.670;2022-11-25T07:09:28;8.50;99.90
15481;DHT22;7842;50.904;6.670;2022-11-25T07:11:53;8.40;99.90
15481;DHT22;7842;50.904;6.670;2022-11-25T07:14:19;8.30;99.90
15481;DHT22;7842;50.904;6.670;2022-11-25T07:16:45;8.30;99.90
15481;DHT22;7842;50.904;6.670;2022-11-25T07:19:13;8.20;99.90
15481;DHT22;7842;50.904;6.670;2022-11-25T07:21:39;8.20;99.90
15481;DHT22;7842;50.904;6.670;2022-11-25T07:24:06;8.10;99.90
15481;DHT22;7842;50.904;6.670;2022-11-25T07:26:36;8.10;99.90
15481;DHT22;7842;50.904;6.670;2022-11-25T07:29:11;8.30;99.90
15481;DHT22;7842;50.904;6.670;2022-11-25T07:31:40;8.10;99.90
15481;DHT22;7842;50.904;6.670;2022-11-25T07:36:32;8.00;99.90
15481;DHT22;7842;50.904;6.670;2022-11-25T07:39:00;8.00;99.90
15481;DHT22;7842;50.904;6.670;2022-11-25T07:41:27;8.00;99.90
15481;DHT22;7842;50.904;6.670;2022-11-25T07:43:58;8.00;99.90
15481;DHT22;7842;50.904;6.670;2022-11-25T07:46:27;8.00;99.90
15481;DHT22;7842;50.904;6.670;2022-11-25T07:48:55;8.10;99.90
15481;DHT22;7842;50.904;6.670;2022-11-25T07:51:28;8.00;99.90
15481;DHT22;7842;50.904;6.670;2022-11-25T07:53:56;8.00;99.90
15481;DHT22;7842;50.904;6.670;2022-11-25T07:56:22;8.00;99.90
15481;DHT22;7842;50.904;6.670;2022-11-25T07:58:48;8.00;99.90
15481;DHT22;7842;50.904;6.670;2022-11-25T08:01:15;8.00;99.90
15481;DHT22;7842;50.904;6.670;2022-11-25T08:03:43;8.10;99.90
15481;DHT22;7842;50.904;6.670;2022-11-25T08:06:11;8.20;99.90
15481;DHT22;7842;50.904;6.670;2022-11-25T08:08:40;8.40;99.90
15481;DHT22;7842;50.904;6.670;2022-11-25T08:11:11;8.30;99.90
15481;DHT22;7842;50.904;6.670;2022-11-25T08:13:38;8.30;99.90
15481;DHT22;7842;50.904;6.670;2022-11-25T08:16:07;8.30;99.90
15481;DHT22;7842;50.904;6.670;2022-11-25T08:18:33;8.40;99.90
15481;DHT22;7842;50.904;6.670;2022-11-25T08:21:00;8.40;99.90
15481;DHT22;7842;50.904;6.670;2022-11-25T08:23:33;8.50;99.90
15481;DHT22;7842;50.904;6.670;2022-11-25T08:26:15;8.50;99.90
15481;DHT22;7842;50.904;6.670;2022-11-25T08:28:44;8.50;99.90
15481;DHT22;7842;50.904;6.670;2022-11-25T08:31:15;8.60;99.90
15481;DHT22;7842;50.904;6.670;2022-11-25T08:33:44;8.50;99.90
15481;DHT22;7842;50.904;6.670;2022-11-25T08:36:10;8.50;99.90
15481;DHT22;7842;50.904;6.670;2022-11-25T08:38:39;8.60;99.90
15481;DHT22;7842;50.904;6.670;2022-11-25T08:41:12;8.60;99.90
15481;DHT22;7842;50.904;6.670;2022-11-25T08:43:39;8.60;99.90
15481;DHT22;7842;50.904;6.670;2022-11-25T08:46:10;8.70;99.90
15481;DHT22;7842;50.904;6.670;2022-11-25T08:48:37;8.70;99.90
15481;DHT22;7842;50.904;6.670;2022-11-25T08:51:09;8.80;99.90
15481;DHT22;7842;50.904;6.670;2022-11-25T08:53:37;8.80;99.90
15481;DHT22;7842;50.904;6.670;2022-11-25T08:56:07;8.90;99.90
15481;DHT22;7842;50.904;6.670;2022-11-25T08:58:33;8.90;99.90
15481;DHT22;7842;50.904;6.670;2022-11-25T09:01:03;9.10;99.90
15481;DHT22;7842;50.904;6.670;2022-11-25T09:03:38;9.20;99.90
15481;DHT22;7842;50.904;6.670;2022-11-25T09:06:06;9.20;99.90
15481;DHT22;7842;50.904;6.670;2022-11-25T09:08:32;9.30;99.90
15481;DHT22;7842;50.904;6.670;2022-11-25T09:10:59;9.50;99.90
15481;DHT22;7842;50.904;6.670;2022-11-25T09:13:25;9.50;99.90
15481;DHT22;7842;50.904;6.670;2022-11-25T09:15:51;9.50;99.90
15481;DHT22;7842;50.904;6.670;2022-11-25T09:18:20;9.60;99.90
15481;DHT22;7842;50.904;6.670;2022-11-25T09:20:51;9.70;99.90
15481;DHT22;7842;50.904;6.670;2022-11-25T09:23:17;9.70;99.90
15481;DHT22;7842;50.904;6.670;2022-11-25T09:25:56;10.10;99.90
15481;DHT22;7842;50.904;6.670;2022-11-25T09:28:22;9.80;99.90
15481;DHT22;7842;50.904;6.670;2022-11-25T09:30:49;9.90;99.90
15481;DHT22;7842;50.904;6.670;2022-11-25T09:33:15;9.90;99.90
15481;DHT22;7842;50.904;6.670;2022-11-25T09:35:40;10.00;99.90
15481;DHT22;7842;50.904;6.670;2022-11-25T09:38:06;10.00;99.90
15481;DHT22;7842;50.904;6.670;2022-11-25T09:40:50;10.00;99.90
15481;DHT22;7842;50.904;6.670;2022-11-25T09:43:40;10.10;99.90
15481;DHT22;7842;50.904;6.670;2022-11-25T09:46:53;10.10;99.90
15481;DHT22;7842;50.904;6.670;2022-11-25T09:52:18;10.20;99.90
15481;DHT22;7842;50.904;6.670;2022-11-25T10:00:18;10.30;99.90
15481;DHT22;7842;50.904;6.670;2022-11-25T10:05:27;10.40;99.90
15481;DHT22;7842;50.904;6.670;2022-11-25T10:07:58;10.50;99.90
15481;DHT22;7842;50.904;6.670;2022-11-25T10:10:29;10.80;99.90
15481;DHT22;7842;50.904;6.670;2022-11-25T10:12:57;10.60;99.90
15481;DHT22;7842;50.904;6.670;2022-11-25T10:15:28;10.70;99.90
15481;DHT22;7842;50.904;6.670;2022-11-25T10:18:02;10.70;99.90
15481;DHT22;7842;50.904;6.670;2022-11-25T10:20:31;10.80;99.90
15481;DHT22;7842;50.904;6.670;2022-11-25T10:23:29;10.90;99.90
15481;DHT22;7842;50.904;6.670;2022-11-25T10:26:00;10.90;99.90
15481;DHT22;7842;50.904;6.670;2022-11-25T10:28:31;11.00;99.90
15481;DHT22;7842;50.904;6.670;2022-11-25T10:31:05;11.00;99.90
15481;DHT22;7842;50.904;6.670;2022-11-25T10:33:54;11.10;99.90
15481;DHT22;7842;50.904;6.670;2022-11-25T10:36:31;11.10;99.90
15481;DHT22;7842;50.904;6.670;2022-11-25T10:41:45;11.20;99.90
15481;DHT22;7842;50.904;6.670;2022-11-25T10:44:28;11.20;99.90
15481;DHT22;7842;50.904;6.670;2022-11-25T10:47:11;11.20;99.90
15481;DHT22;7842;50.904;6.670;2022-11-25T10:49:49;11.30;99.90
15481;DHT22;7842;50.904;6.670;2022-11-25T10:52:19;11.50;99.90
15481;DHT22;7842;50.904;6.670;2022-11-25T10:55:17;11.30;99.90
15481;DHT22;7842;50.904;6.670;2022-11-25T10:57:42;11.30;99.90
15481;DHT22;7842;50.904;6.670;2022-11-25T11:02:48;11.50;99.90
15481;DHT22;7842;50.904;6.670;2022-11-25T11:05:22;11.50;99.90
15481;DHT22;7842;50.904;6.670;2022-11-25T11:08:14;11.50;99.90
15481;DHT22;7842;50.904;6.670;2022-11-25T11:10:40;11.50;99.90
15481;DHT22;7842;50.904;6.670;2022-11-25T11:13:20;11.50;99.90
15481;DHT22;7842;50.904;6.670;2022-11-25T11:15:48;11.50;99.90
15481;DHT22;7842;50.904;6.670;2022-11-25T11:21:05;11.50;99.90
15481;DHT22;7842;50.904;6.670;2022-11-25T11:23:47;11.50;99.90
15481;DHT22;7842;50.904;6.670;2022-11-25T11:26:33;11.60;99.90
15481;DHT22;7842;50.904;6.670;2022-11-25T11:29:14;11.50;99.90
15481;DHT22;7842;50.904;6.670;2022-11-25T11:32:00;11.50;99.90
15481;DHT22;7842;50.904;6.670;2022-11-25T11:34:35;11.60;99.90
15481;DHT22;7842;50.904;6.670;2022-11-25T11:40:12;11.70;99.90
15481;DHT22;7842;50.904;6.670;2022-11-25T11:45:51;11.70;99.90
15481;DHT22;7842;50.904;6.670;2022-11-25T11:48:24;11.60;99.90
15481;DHT22;7842;50.904;6.670;2022-11-25T11:51:04;11.50;99.90
15481;DHT22;7842;50.904;6.670;2022-11-25T11:56:17;11.60;99.90
15481;DHT22;7842;50.904;6.670;2022-11-25T11:59:17;11.70;99.90
15481;DHT22;7842;50.904;6.670;2022-11-25T12:04:39;12.00;99.90
15481;DHT22;7842;50.904;6.670;2022-11-25T12:07:31;12.00;99.90
15481;DHT22;7842;50.904;6.670;2022-11-25T12:16:11;11.90;99.90
15481;DHT22;7842;50.904;6.670;2022-11-25T12:19:31;11.80;99.90
15481;DHT22;7842;50.904;6.670;2022-11-25T12:21:54;11.70;99.90
15481;DHT22;7842;50.904;6.670;2022-11-25T12:24:41;11.70;99.90
15481;DHT22;7842;50.904;6.670;2022-11-25T12:27:19;11.70;99.90
15481;DHT22;7842;50.904;6.670;2022-11-25T12:30:05;11.70;99.90
15481;DHT22;7842;50.904;6.670;2022-11-25T12:32:51;11.80;99.90
15481;DHT22;7842;50.904;6.670;2022-11-25T12:43:34;12.00;99.90
15481;DHT22;7842;50.904;6.670;2022-11-25T12:46:14;12.00;99.90
15481;DHT22;7842;50.904;6.670;2022-11-25T12:48:42;12.00;99.90
15481;DHT22;7842;50.904;6.670;2022-11-25T12:59:54;12.00;99.90
15481;DHT22;7842;50.904;6.670;2022-11-25T13:16:39;11.70;99.90
15481;DHT22;7842;50.904;6.670;2022-11-25T13:19:09;11.80;99.90
15481;DHT22;7842;50.904;6.670;2022-11-25T13:21:58;11.70;99.90
15481;DHT22;7842;50.904;6.670;2022-11-25T13:24:42;11.70;99.90
15481;DHT22;7842;50.904;6.670;2022-11-25T13:30:00;11.60;99.90
15481;DHT22;7842;50.904;6.670;2022-11-25T13:32:34;11.60;99.90
15481;DHT22;7842;50.904;6.670;2022-11-25T13:37:49;11.60;99.90
15481;DHT22;7842;50.904;6.670;2022-11-25T13:42:54;11.70;99.90
15481;DHT22;7842;50.904;6.670;2022-11-25T13:45:31;11.50;99.90
15481;DHT22;7842;50.904;6.670;2022-11-25T13:48:19;11.90;99.90
15481;DHT22;7842;50.904;6.670;2022-11-25T13:50:46;11.60;99.90
15481;DHT22;7842;50.904;6.670;2022-11-25T13:53:47;11.60;99.90
15481;DHT22;7842;50.904;6.670;2022-11-25T13:56:26;11.60;99.90
15481;DHT22;7842;50.904;6.670;2022-11-25T14:01:41;11.70;99.90
15481;DHT22;7842;50.904;6.670;2022-11-25T14:04:19;11.70;99.90
15481;DHT22;7842;50.904;6.670;2022-11-25T14:09:28;11.70;99.90
15481;DHT22;7842;50.904;6.670;2022-11-25T14:17:28;11.70;99.90
15481;DHT22;7842;50.904;6.670;2022-11-25T14:20:18;11.70;99.90
15481;DHT22;7842;50.904;6.670;2022-11-25T14:25:54;11.70;99.90
15481;DHT22;7842;50.904;6.670;2022-11-25T14:28:35;11.60;99.90
15481;DHT22;7842;50.904;6.670;2022-11-25T14:31:07;11.60;99.90
15481;DHT22;7842;50.904;6.670;2022-11-25T14:33:47;11.50;99.90
15481;DHT22;7842;50.904;6.670;2022-11-25T14:36:20;11.50;99.90
15481;DHT22;7842;50.904;6.670;2022-11-25T14:39:05;11.50;99.90
15481;DHT22;7842;50.904;6.670;2022-11-25T14:44:08;11.30;99.90
15481;DHT22;7842;50.904;6.670;2022-11-25T14:46:50;11.40;99.90
15481;DHT22;7842;50.904;6.670;2022-11-25T14:49:16;11.30;99.90
15481;DHT22;7842;50.904;6.670;2022-11-25T14:51:41;11.30;99.90
15481;DHT22;7842;50.904;6.670;2022-11-25T14:54:11;11.20;99.90
15481;DHT22;7842;50.904;6.670;2022-11-25T14:56:36;11.20;99.90
15481;DHT22;7842;50.904;6.670;2022-11-25T14:59:03;11.20;99.90
15481;DHT22;7842;50.904;6.670;2022-11-25T15:01:33;11.20;99.90
15481;DHT22;7842;50.904;6.670;2022-11-25T15:06:36;11.20;99.90
15481;DHT22;7842;50.904;6.670;2022-11-25T15:11:54;11.20;99.90
15481;DHT22;7842;50.904;6.670;2022-11-25T15:14:31;11.20;99.90
15481;DHT22;7842;50.904;6.670;2022-11-25T15:16:58;11.10;99.90
15481;DHT22;7842;50.904;6.670;2022-11-25T15:19:26;11.10;99.90
15481;DHT22;7842;50.904;6.670;2022-11-25T15:22:00;11.00;99.90
15481;DHT22;7842;50.904;6.670;2022-11-25T15:24:41;11.20;99.90
15481;DHT22;7842;50.904;6.670;2022-11-25T15:27:16;11.00;99.90
15481;DHT22;7842;50.904;6.670;2022-11-25T15:29:46;10.90;99.90
15481;DHT22;7842;50.904;6.670;2022-11-25T15:32:22;10.90;99.90
15481;DHT22;7842;50.904;6.670;2022-11-25T15:34:56;10.80;99.90
15481;DHT22;7842;50.904;6.670;2022-11-25T15:37:23;10.70;99.90
15481;DHT22;7842;50.904;6.670;2022-11-25T15:39:50;10.70;99.90
15481;DHT22;7842;50.904;6.670;2022-11-25T15:42:35;10.60;99.90
15481;DHT22;7842;50.904;6.670;2022-11-25T15:45:09;10.50;99.90
15481;DHT22;7842;50.904;6.670;2022-11-25T15:47:45;10.50;99.90
15481;DHT22;7842;50.904;6.670;2022-11-25T15:50:22;10.50;99.90
15481;DHT22;7842;50.904;6.670;2022-11-25T15:52:52;10.60;99.90
15481;DHT22;7842;50.904;6.670;2022-11-25T15:57:50;10.70;99.90
15481;DHT22;7842;50.904;6.670;2022-11-25T16:00:20;10.70;99.90
15481;DHT22;7842;50.904;6.670;2022-11-25T16:10:26;10.80;99.90
15481;DHT22;7842;50.904;6.670;2022-11-25T16:13:14;10.80;99.90
15481;DHT22;7842;50.904;6.670;2022-11-25T16:21:19;10.80;99.90
15481;DHT22;7842;50.904;6.670;2022-11-25T16:23:48;10.90;99.90
15481;DHT22;7842;50.904;6.670;2022-11-25T16:26:19;10.80;99.90
15481;DHT22;7842;50.904;6.670;2022-11-25T16:28:57;10.70;99.90
15481;DHT22;7842;50.904;6.670;2022-11-25T16:31:24;10.70;99.90
15481;DHT22;7842;50.904;6.670;2022-11-25T16:34:00;10.60;99.90
15481;DHT22;7842;50.904;6.670;2022-11-25T16:36:26;10.60;99.90
15481;DHT22;7842;50.904;6.670;2022-11-25T16:38:52;10.60;99.90
15481;DHT22;7842;50.904;6.670;2022-11-25T16:41:24;10.50;99.90
15481;DHT22;7842;50.904;6.670;2022-11-25T16:43:51;10.50;99.90
15481;DHT22;7842;50.904;6.670;2022-11-25T16:46:18;10.60;99.90
15481;DHT22;7842;50.904;6.670;2022-11-25T16:48:44;10.30;99.90
15481;DHT22;7842;50.904;6.670;2022-11-25T16:51:20;10.30;99.90
15481;DHT22;7842;50.904;6.670;2022-11-25T16:53:46;10.20;99.90
15481;DHT22;7842;50.904;6.670;2022-11-25T16:56:16;10.20;99.90
15481;DHT22;7842;50.904;6.670;2022-11-25T16:58:45;10.20;99.90
15481;DHT22;7842;50.904;6.670;2022-11-25T17:01:13;10.20;99.90
15481;DHT22;7842;50.904;6.670;2022-11-25T17:03:40;10.20;99.90
15481;DHT22;7842;50.904;6.670;2022-11-25T17:06:17;10.10;99.90
15481;DHT22;7842;50.904;6.670;2022-11-25T17:08:44;10.20;99.90
15481;DHT22;7842;50.904;6.670;2022-11-25T17:11:27;10.20;99.90
15481;DHT22;7842;50.904;6.670;2022-11-25T17:13:55;10.10;99.90
15481;DHT22;7842;50.904;6.670;2022-11-25T17:16:25;10.10;99.90
15481;DHT22;7842;50.904;6.670;2022-11-25T17:18:53;10.20;99.90
15481;DHT22;7842;50.904;6.670;2022-11-25T17:21:19;10.00;99.90
15481;DHT22;7842;50.904;6.670;2022-11-25T17:23:45;10.00;99.90
15481;DHT22;7842;50.904;6.670;2022-11-25T17:26:22;10.00;99.90
15481;DHT22;7842;50.904;6.670;2022-11-25T17:28:58;10.10;99.90
15481;DHT22;7842;50.904;6.670;2022-11-25T17:31:27;10.10;99.90
15481;DHT22;7842;50.904;6.670;2022-11-25T17:33:54;10.10;99.90
15481;DHT22;7842;50.904;6.670;2022-11-25T17:36:20;10.20;99.90
15481;DHT22;7842;50.904;6.670;2022-11-25T17:38:46;10.20;99.90
15481;DHT22;7842;50.904;6.670;2022-11-25T17:41:14;10.20;99.90
15481;DHT22;7842;50.904;6.670;2022-11-25T17:43:40;10.20;99.90
15481;DHT22;7842;50.904;6.670;2022-11-25T17:46:14;10.20;99.90
15481;DHT22;7842;50.904;6.670;2022-11-25T17:48:40;10.20;99.90
15481;DHT22;7842;50.904;6.670;2022-11-25T17:51:07;10.10;99.90
15481;DHT22;7842;50.904;6.670;2022-11-25T17:53:34;10.10;99.90
15481;DHT22;7842;50.904;6.670;2022-11-25T17:56:27;10.10;99.90
15481;DHT22;7842;50.904;6.670;2022-11-25T17:58:54;10.00;99.90
15481;DHT22;7842;50.904;6.670;2022-11-25T18:01:21;10.00;99.90
15481;DHT22;7842;50.904;6.670;2022-11-25T18:03:46;10.00;99.90
15481;DHT22;7842;50.904;6.670;2022-11-25T18:06:17;10.00;99.90
15481;DHT22;7842;50.904;6.670;2022-11-25T18:08:43;9.90;99.90
15481;DHT22;7842;50.904;6.670;2022-11-25T18:11:15;9.90;99.90
15481;DHT22;7842;50.904;6.670;2022-11-25T18:13:43;9.90;99.90
15481;DHT22;7842;50.904;6.670;2022-11-25T18:16:09;9.90;99.90
15481;DHT22;7842;50.904;6.670;2022-11-25T18:18:34;9.90;99.90